Terminal Aerodrome Forecast
Issued by NWS

Home | Current Version | Previous Version | Text Only | Print | Product List | Glossary On
Versions: 1 2 3 4 5 6 7 8 9 10 11 12 13 14 15 16
325
FTUS43 KGRB 210543
TAFMTW
TAF
KMTW 210543Z 2106/2206 VRB03KT P6SM SCT250
      TEMPO 2108/2112 2SM BR SCT002
     FM211400 15009KT P6SM SKC
     FM211900 16009KT P6SM FEW040 SCT150 PROB30 2121/2202 3SM -TSRA
      BKN040CB
     FM220200 09010KT 6SM -SHRA SCT025 OVC040
      TEMPO 2202/2206 2SM -TSRA BKN025CB=

USA.gov is the U.S. government's official web portal to all federal, state and local government web resources and services.